Time;durP1;ratioP1;P1;durP2;ratioP2;P2;SDS_P1;SDS_P2;PMS_P1;PMS_P2;Temp;Humidity;BMP_temperature;BMP_pressure;BME280_temperature;BME280_humidity;BME280_pressure;Samples;Min_cycle;Max_cycle;Signal;HPM_P1;HPM_P2
2022/02/07 00:01:33;;;;;;;;;;;;;;;23.28;26.70;98558.09;5055740;28;998;-76
2022/02/07 00:04:02;;;;;;;;;;;;;;;23.61;26.68;98556.19;5073428;28;932;-76
2022/02/07 00:06:28;;;;;;;;;;;;;;;22.30;27.81;98556.81;5072917;28;1014;-76
2022/02/07 00:08:56;;;;;;;;;;;;;;;22.28;27.87;98567.28;5090212;22;4035;-75
2022/02/07 00:11:22;;;;;;;;;;;;;;;22.24;27.73;98566.94;5058400;28;1348;-76
2022/02/07 00:13:49;;;;;;;;;;;;;;;21.49;29.43;98580.06;5093205;28;1056;-75
2022/02/07 00:16:15;;;;;;;;;;;;;;;22.62;27.80;98583.81;5092782;28;896;-77
2022/02/07 00:18:41;;;;;;;;;;;;;;;22.90;27.63;98591.94;5092912;28;1371;-75
2022/02/07 00:21:08;;;;;;;;;;;;;;;21.69;28.96;98604.47;5093268;28;1041;-75
2022/02/07 00:23:34;;;;;;;;;;;;;;;22.31;28.27;98605.47;5092899;28;982;-75
2022/02/07 00:26:02;;;;;;;;;;;;;;;21.97;28.42;98608.25;5092289;28;1065;-75
2022/02/07 00:28:28;;;;;;;;;;;;;;;21.94;28.74;98611.50;5074666;28;1910;-75
2022/02/07 00:30:54;;;;;;;;;;;;;;;22.69;27.35;98612.13;5092846;28;994;-74
2022/02/07 00:33:21;;;;;;;;;;;;;;;22.19;27.66;98608.31;5074669;28;998;-75
2022/02/07 00:35:47;;;;;;;;;;;;;;;20.60;29.87;98628.16;5074504;28;1053;-73
2022/02/07 00:38:18;;;;;;;;;;;;;;;21.21;29.55;98632.22;5074338;28;1412;-74
2022/02/07 00:40:48;;;;;;;;;;;;;;;21.88;28.08;98624.38;5092719;28;1022;-75
2022/02/07 00:43:33;;;;;;;;;;;;;;;22.08;28.28;98629.41;5074288;28;1179;-74
2022/02/07 00:46:06;;;;;;;;;;;;;;;21.72;28.15;98640.66;5074383;28;1026;-75
2022/02/07 00:48:32;;;;;;;;;;;;;;;21.87;27.85;98648.41;5074440;28;1987;-75
2022/02/07 00:50:58;;;;;;;;;;;;;;;22.40;27.43;98637.97;5074711;28;959;-73
2022/02/07 00:53:28;;;;;;;;;;;;;;;21.29;28.54;98646.75;5057239;28;1200;-75
2022/02/07 00:55:55;;;;;;;;;;;;;;;21.61;28.14;98652.63;5092024;28;915;-75
2022/02/07 00:58:23;;;;;;;;;;;;;;;21.51;27.62;98660.66;5073972;28;1442;-75
2022/02/07 01:00:52;;;;;;;;;;;;;;;21.31;28.54;98672.16;5077210;28;1029;-74
2022/02/07 01:03:19;;;;;;;;;;;;;;;21.90;27.33;98677.47;5080043;28;943;-75
2022/02/07 01:05:46;;;;;;;;;;;;;;;21.75;27.41;98697.31;5073517;28;806;-72
2022/02/07 01:08:21;;;;;;;;;;;;;;;21.03;28.35;98684.81;5074078;28;1917;-75
2022/02/07 01:10:55;;;;;;;;;;;;;;;21.34;27.86;98682.69;5057590;28;1301;-73
2022/02/07 01:13:40;;;;;;;;;;;;;;;22.20;26.81;98698.41;5074471;28;1002;-73
2022/02/07 01:16:15;;;;;;;;;;;;;;;21.30;27.76;98701.66;5073631;28;1295;-74
2022/02/07 01:19:15;;;;;;;;;;;;;;;21.19;27.92;98703.38;5073567;28;1479;-74
2022/02/07 01:22:14;;;;;;;;;;;;;;;22.04;26.67;98716.63;5072851;28;1014;-74
2022/02/07 01:47:36;;;;;;;;;;;;;;;21.24;27.66;98753.16;5074537;28;1177;-76
2022/02/07 01:50:40;;;;;;;;;;;;;;;21.37;27.66;98759.47;5073348;28;1987;-75
2022/02/07 01:53:21;;;;;;;;;;;;;;;20.52;28.56;98770.75;5073426;28;998;-73
2022/02/07 01:56:03;;;;;;;;;;;;;;;21.24;27.16;98777.97;5072767;28;955;-74
2022/02/07 01:58:30;;;;;;;;;;;;;;;21.54;26.71;98770.63;5056568;28;1348;-75
2022/02/07 02:00:57;;;;;;;;;;;;;;;21.02;27.43;98774.97;5073299;28;990;-74
2022/02/07 02:03:25;;;;;;;;;;;;;;;20.13;28.79;98797.81;5073473;28;1014;-74
2022/02/07 02:05:57;;;;;;;;;;;;;;;20.98;27.60;98795.00;5091193;28;792;-74
2022/02/07 02:08:31;;;;;;;;;;;;;;;20.73;27.84;98804.34;5056077;28;1906;-74
2022/02/07 02:11:00;;;;;;;;;;;;;;;21.20;26.92;98804.34;5091048;28;1045;-74
2022/02/07 02:13:43;;;;;;;;;;;;;;;21.92;26.52;98818.88;5072636;28;991;-74
2022/02/07 02:16:18;;;;;;;;;;;;;;;21.03;27.34;98826.31;5059349;28;932;-73
2022/02/07 02:19:21;;;;;;;;;;;;;;;21.10;26.72;98839.97;5073713;28;1412;-74
2022/02/07 02:36:19;;;;;;;;;;;;;;;21.16;28.20;98896.09;5071355;28;1127;-74
2022/02/07 02:45:22;;;;;;;;;;;;;;;20.48;29.01;98899.03;5072665;28;1341;-75
2022/02/07 02:47:17;;;;;;;;;;;;;;;22.24;26.27;98918.69;5072529;28;1119;-74
2022/02/07 02:49:47;;;;;;;;;;;;;;;21.51;28.18;98947.69;5069567;28;1960;-73
2022/02/07 02:52:14;;;;;;;;;;;;;;;21.74;27.53;98944.16;5072238;28;1082;-74
2022/02/07 02:54:42;;;;;;;;;;;;;;;21.18;27.99;98952.72;5063935;28;1220;-74
2022/02/07 02:57:09;;;;;;;;;;;;;;;20.43;29.08;98959.53;5070841;28;978;-75
2022/02/07 02:59:35;;;;;;;;;;;;;;;20.79;28.56;98970.72;5052719;28;1332;-75
2022/02/07 03:02:02;;;;;;;;;;;;;;;20.98;28.19;98979.75;5052857;28;831;-74
2022/02/07 03:04:29;;;;;;;;;;;;;;;20.52;29.13;98982.06;5052101;28;935;-76
2022/02/07 03:06:55;;;;;;;;;;;;;;;19.93;29.52;98996.31;5052476;28;1060;-75
2022/02/07 03:09:23;;;;;;;;;;;;;;;21.15;28.39;99002.00;5051809;28;1969;-74
2022/02/07 03:11:52;;;;;;;;;;;;;;;19.82;30.08;99011.69;5052208;28;976;-74
2022/02/07 03:14:34;;;;;;;;;;;;;;;19.93;30.20;99015.59;5051835;28;1018;-75
2022/02/07 03:17:02;;;;;;;;;;;;;;;22.04;27.84;99017.72;5069783;28;1546;-75
2022/02/07 03:19:29;;;;;;;;;;;;;;;21.13;28.56;99027.06;5072032;28;1506;-75
2022/02/07 03:21:58;;;;;;;;;;;;;;;21.64;28.21;99035.00;5072393;28;1107;-74
2022/02/07 03:24:25;;;;;;;;;;;;;;;21.35;28.43;99040.31;5072012;28;1007;-76
2022/02/07 03:27:28;;;;;;;;;;;;;;;22.38;27.00;99043.66;5063876;28;1459;-75
2022/02/07 03:29:58;;;;;;;;;;;;;;;22.21;27.07;99065.63;5075793;28;1918;-76
2022/02/07 03:32:35;;;;;;;;;;;;;;;22.36;27.13;99061.56;5075871;28;998;-74
2022/02/07 03:35:06;;;;;;;;;;;;;;;22.64;26.42;99068.25;5075419;28;1062;-74
2022/02/07 03:37:33;;;;;;;;;;;;;;;21.76;27.45;99080.03;5075868;28;1052;-73
2022/02/07 03:40:00;;;;;;;;;;;;;;;19.98;29.74;99084.59;5059621;28;1403;-76
2022/02/07 03:42:29;;;;;;;;;;;;;;;21.53;28.07;99089.94;5077013;28;1327;-74
2022/02/07 03:45:01;;;;;;;;;;;;;;;22.55;26.83;99099.06;5077681;28;778;-75
2022/02/07 03:47:31;;;;;;;;;;;;;;;21.94;27.19;99103.97;5079209;28;1316;-75
2022/02/07 03:49:58;;;;;;;;;;;;;;;21.68;27.54;99103.31;5075161;28;1916;-75
2022/02/07 03:52:26;;;;;;;;;;;;;;;22.45;26.80;99115.41;5075421;28;935;-75
2022/02/07 03:54:52;;;;;;;;;;;;;;;22.01;26.71;99126.78;5075250;28;829;-76
2022/02/07 03:57:19;;;;;;;;;;;;;;;21.03;28.20;99129.69;5075515;28;857;-74
2022/02/07 03:59:47;;;;;;;;;;;;;;;21.13;27.80;99136.56;5075302;28;1314;-76
2022/02/07 04:02:14;;;;;;;;;;;;;;;21.17;28.35;99146.91;5075141;28;1045;-75
2022/02/07 04:04:45;;;;;;;;;;;;;;;22.01;27.19;99153.56;5057944;28;1513;-74
2022/02/07 04:07:13;;;;;;;;;;;;;;;22.39;26.59;99166.97;5075036;28;956;-73
2022/02/07 04:09:45;;;;;;;;;;;;;;;21.95;27.25;99176.59;5074930;28;1906;-74
2022/02/07 04:12:15;;;;;;;;;;;;;;;21.09;27.94;99185.00;5075013;28;852;-75
2022/02/07 04:14:52;;;;;;;;;;;;;;;21.63;27.17;99174.13;5074649;28;1515;-74
2022/02/07 04:17:23;;;;;;;;;;;;;;;21.63;27.48;99177.72;5075269;28;1046;-73
2022/02/07 04:19:57;;;;;;;;;;;;;;;22.21;27.07;99189.97;5074843;28;1317;-74
2022/02/07 04:22:25;;;;;;;;;;;;;;;22.42;27.04;99197.97;5074963;28;989;-74
2022/02/07 04:25:03;;;;;;;;;;;;;;;23.11;25.99;99197.28;5057504;28;1358;-73
2022/02/07 04:27:38;;;;;;;;;;;;;;;22.99;26.32;99202.84;5092800;28;737;-73
2022/02/07 04:30:08;;;;;;;;;;;;;;;22.76;26.61;99220.34;5057734;28;1981;-73
2022/02/07 04:32:39;;;;;;;;;;;;;;;22.62;26.62;99226.09;5074626;28;950;-74
2022/02/07 04:35:06;;;;;;;;;;;;;;;22.57;26.59;99240.63;5074220;28;839;-73
2022/02/07 04:37:32;;;;;;;;;;;;;;;22.45;26.43;99245.31;5074215;28;982;-75
2022/02/07 04:39:59;;;;;;;;;;;;;;;21.07;28.33;99255.03;5074451;28;1364;-75
2022/02/07 04:42:30;;;;;;;;;;;;;;;21.67;27.47;99263.69;5057648;28;769;-74
2022/02/07 04:45:14;;;;;;;;;;;;;;;22.44;26.58;99267.69;5074132;28;1053;-75
2022/02/07 04:47:57;;;;;;;;;;;;;;;20.98;28.27;99278.47;5057630;28;899;-74
2022/02/07 04:50:34;;;;;;;;;;;;;;;22.89;25.96;99279.00;5074230;28;1927;-76
2022/02/07 04:53:18;;;;;;;;;;;;;;;22.23;26.36;99289.22;5074172;28;978;-75
2022/02/07 04:56:01;;;;;;;;;;;;;;;22.23;26.40;99303.03;5074000;28;1235;-76
2022/02/07 04:58:41;;;;;;;;;;;;;;;22.61;26.40;99303.75;5074023;28;1341;-73
2022/02/07 05:01:13;;;;;;;;;;;;;;;22.19;27.08;99322.03;5092185;28;982;-74
2022/02/07 05:03:46;;;;;;;;;;;;;;;21.72;27.81;99335.63;5074100;28;951;-73
2022/02/07 05:14:34;;;;;;;;;;;;;;;23.50;25.88;99347.91;5061001;28;1463;-75
2022/02/07 05:17:03;;;;;;;;;;;;;;;22.23;26.84;99361.94;5056923;28;1151;-74
2022/02/07 05:19:53;;;;;;;;;;;;;;;20.77;28.21;99365.22;5072812;28;1536;-74
2022/02/07 05:22:54;;;;;;;;;;;;;;;21.54;28.03;99386.19;5026367;28;1572;-74
2022/02/07 05:25:36;;;;;;;;;;;;;;;21.43;28.19;99384.97;5060508;28;1451;-74
2022/02/07 05:28:19;;;;;;;;;;;;;;;21.38;28.39;99390.34;5051475;28;1490;-75
2022/02/07 05:31:08;;;;;;;;;;;;;;;21.22;28.02;99400.06;5040267;28;2068;-73
2022/02/07 05:33:51;;;;;;;;;;;;;;;22.59;26.01;99402.69;5065222;28;1461;-74
2022/02/07 05:36:32;;;;;;;;;;;;;;;21.81;27.44;99410.72;5064081;28;1520;-74
2022/02/07 05:39:16;;;;;;;;;;;;;;;21.99;27.04;99413.44;5088107;28;1470;-73
2022/02/07 05:42:05;;;;;;;;;;;;;;;22.36;26.65;99431.94;5070561;28;1480;-74
2022/02/07 05:44:45;;;;;;;;;;;;;;;22.00;26.54;99425.34;5068743;28;1436;-74
2022/02/07 05:47:29;;;;;;;;;;;;;;;20.67;28.74;99436.50;5088022;28;1536;-74
2022/02/07 05:50:03;;;;;;;;;;;;;;;21.85;27.07;99451.44;5055204;28;1969;-75
2022/02/07 05:53:09;;;;;;;;;;;;;;;21.06;28.00;99464.91;5013460;28;1595;-75
2022/02/07 05:55:59;;;;;;;;;;;;;;;22.96;26.07;99472.53;4974360;28;1277;-76
2022/02/07 05:58:35;;;;;;;;;;;;;;;22.23;26.71;99471.59;5038547;28;1514;-74
2022/02/07 06:01:13;;;;;;;;;;;;;;;22.78;26.06;99484.50;5052968;28;1458;-75
2022/02/07 06:03:40;;;;;;;;;;;;;;;21.56;27.52;99483.38;5071085;28;1488;-75
2022/02/07 06:06:10;;;;;;;;;;;;;;;22.30;26.56;99493.63;5070741;28;1554;-74
2022/02/07 06:08:38;;;;;;;;;;;;;;;22.70;26.16;99498.66;5070647;28;1569;-73
2022/02/07 06:11:07;;;;;;;;;;;;;;;21.95;26.77;99502.53;5068420;23;3754;-76
2022/02/07 06:13:38;;;;;;;;;;;;;;;20.25;28.88;99505.84;5052072;28;1358;-77
2022/02/07 06:16:08;;;;;;;;;;;;;;;21.63;27.53;99516.47;5048313;28;926;-77
2022/02/07 06:18:35;;;;;;;;;;;;;;;21.68;27.07;99528.50;5034361;28;1465;-77
2022/02/07 06:21:05;;;;;;;;;;;;;;;21.40;27.41;99523.41;5053492;28;1500;-77
2022/02/07 06:23:33;;;;;;;;;;;;;;;22.13;26.87;99544.00;5048161;28;1521;-78
2022/02/07 06:26:08;;;;;;;;;;;;;;;21.61;27.51;99552.59;5018024;28;1281;-78
2022/02/07 06:28:34;;;;;;;;;;;;;;;21.03;27.73;99561.88;5034037;28;1488;-79
2022/02/07 06:31:05;;;;;;;;;;;;;;;20.56;28.01;99573.13;5025928;28;1940;-77
2022/02/07 06:33:33;;;;;;;;;;;;;;;20.70;28.10;99573.97;5025749;28;1490;-76
2022/02/07 06:36:03;;;;;;;;;;;;;;;22.01;26.66;99581.75;5052750;28;1042;-79
2022/02/07 06:38:31;;;;;;;;;;;;;;;21.88;26.67;99588.25;5052225;28;1144;-79
2022/02/07 06:40:58;;;;;;;;;;;;;;;21.34;27.30;99599.69;5033692;28;1762;-78
2022/02/07 06:43:26;;;;;;;;;;;;;;;21.82;27.28;99608.47;5033300;28;1062;-78
2022/02/07 06:45:53;;;;;;;;;;;;;;;22.16;26.22;99611.78;5033517;28;1678;-77
2022/02/07 06:48:21;;;;;;;;;;;;;;;22.46;26.21;99613.81;5023855;28;1152;-76
2022/02/07 06:50:48;;;;;;;;;;;;;;;21.79;26.79;99642.06;5020240;28;2001;-77
2022/02/07 06:53:14;;;;;;;;;;;;;;;21.98;26.72;99646.59;5029584;28;1024;-78
2022/02/07 06:55:43;;;;;;;;;;;;;;;22.38;26.04;99634.31;5033471;28;1498;-76
2022/02/07 06:58:10;;;;;;;;;;;;;;;21.71;26.38;99635.75;5030612;28;1542;-77
2022/02/07 07:00:39;;;;;;;;;;;;;;;20.76;27.25;99647.50;5039553;28;1516;-78
2022/02/07 07:03:07;;;;;;;;;;;;;;;21.92;26.27;99647.47;5045234;28;1512;-78
2022/02/07 07:05:34;;;;;;;;;;;;;;;21.90;26.15;99656.00;5038686;28;1319;-78
2022/02/07 07:08:02;;;;;;;;;;;;;;;22.01;26.30;99657.19;5021618;28;1529;-78
2022/02/07 07:10:29;;;;;;;;;;;;;;;21.12;26.95;99664.56;5051391;28;1979;-79
2022/02/07 07:13:09;;;;;;;;;;;;;;;21.54;26.66;99667.75;5052617;28;1568;-77
2022/02/07 07:15:42;;;;;;;;;;;;;;;21.01;27.96;99672.44;5036323;28;1508;-77
2022/02/07 07:18:10;;;;;;;;;;;;;;;21.55;26.94;99688.75;5030488;28;1641;-77
2022/02/07 07:20:38;;;;;;;;;;;;;;;23.44;25.24;99685.81;5022459;28;1336;-77
2022/02/07 07:23:06;;;;;;;;;;;;;;;22.26;25.99;99689.50;5031505;28;1581;-78
2022/02/07 07:25:37;;;;;;;;;;;;;;;22.45;26.02;99695.06;5040415;28;1473;-76
2022/02/07 07:28:07;;;;;;;;;;;;;;;22.46;25.92;99702.28;5041558;28;1517;-78
2022/02/07 07:30:46;;;;;;;;;;;;;;;22.81;25.16;99705.34;5035849;28;1899;-77
2022/02/07 07:33:16;;;;;;;;;;;;;;;21.62;26.66;99710.78;5053277;28;1342;-77
2022/02/07 07:35:43;;;;;;;;;;;;;;;21.16;27.10;99726.50;5028976;28;1343;-77
2022/02/07 07:38:10;;;;;;;;;;;;;;;22.20;25.85;99724.38;4999333;28;1417;-77
2022/02/07 07:40:38;;;;;;;;;;;;;;;20.88;27.47;99725.75;5015726;28;1344;-77
2022/02/07 07:43:07;;;;;;;;;;;;;;;21.64;26.37;99733.53;5038149;28;1502;-79
2022/02/07 07:46:00;;;;;;;;;;;;;;;21.70;26.55;99740.91;5054387;28;1283;-79
2022/02/07 07:48:54;;;;;;;;;;;;;;;20.96;27.25;99743.13;5036595;28;1569;-77
2022/02/07 07:51:42;;;;;;;;;;;;;;;21.36;27.32;99751.25;5039879;28;1914;-79
2022/02/07 07:54:27;;;;;;;;;;;;;;;22.03;26.65;99756.41;5019473;28;1142;-77
2022/02/07 08:02:45;;;;;;;;;;;;;;;22.10;26.35;99781.22;5058584;28;1282;-77
2022/02/07 08:05:23;;;;;;;;;;;;;;;22.37;26.26;99781.91;5049798;28;1488;-78
2022/02/07 08:07:55;;;;;;;;;;;;;;;23.31;25.13;99778.22;5044189;28;1006;-78
2022/02/07 08:10:47;;;;;;;;;;;;;;;22.17;26.65;99787.56;5041412;28;1902;-77
2022/02/07 08:13:18;;;;;;;;;;;;;;;21.59;27.45;99794.91;5037173;28;1778;-78
2022/02/07 08:15:51;;;;;;;;;;;;;;;22.15;26.32;99796.06;5037435;28;1484;-76
2022/02/07 08:18:18;;;;;;;;;;;;;;;21.16;27.92;99796.31;5050002;28;1486;-77
2022/02/07 08:20:45;;;;;;;;;;;;;;;22.04;27.07;99808.69;5053252;28;1447;-78
2022/02/07 08:23:11;;;;;;;;;;;;;;;21.57;27.26;99819.97;5056912;28;1568;-77
2022/02/07 08:25:38;;;;;;;;;;;;;;;22.43;26.41;99818.88;5038018;28;1473;-77
2022/02/07 08:28:05;;;;;;;;;;;;;;;23.33;25.77;99826.75;5019890;28;1474;-77
2022/02/07 08:30:31;;;;;;;;;;;;;;;22.21;26.86;99842.16;5037237;28;1918;-76
2022/02/07 08:32:58;;;;;;;;;;;;;;;23.18;25.83;99843.75;5067482;28;1505;-77
2022/02/07 08:35:26;;;;;;;;;;;;;;;21.73;26.76;99848.19;5059909;28;1298;-76
2022/02/07 08:37:52;;;;;;;;;;;;;;;22.12;26.81;99854.53;5038026;28;1553;-77
2022/02/07 08:40:19;;;;;;;;;;;;;;;21.92;27.17;99856.59;5052942;28;1307;-77
2022/02/07 08:42:45;;;;;;;;;;;;;;;21.53;27.55;99865.66;5035511;28;1299;-78
2022/02/07 08:45:12;;;;;;;;;;;;;;;21.68;27.29;99864.56;5050250;28;1501;-77
2022/02/07 08:47:39;;;;;;;;;;;;;;;22.17;27.19;99876.00;5066031;28;1272;-77
2022/02/07 08:50:06;;;;;;;;;;;;;;;21.38;27.88;99882.44;5061200;28;1714;-76
2022/02/07 08:52:34;;;;;;;;;;;;;;;21.39;27.10;99864.84;5039130;28;1906;-78
2022/02/07 08:55:03;;;;;;;;;;;;;;;23.86;25.42;99888.94;5058963;28;1243;-79
2022/02/07 08:57:34;;;;;;;;;;;;;;;22.94;26.35;99897.16;5055761;28;1509;-77
2022/02/07 09:00:12;;;;;;;;;;;;;;;22.15;26.62;99903.84;5075686;28;1533;-79
2022/02/07 09:03:05;;;;;;;;;;;;;;;22.06;26.18;99907.91;5065464;28;1572;-76
2022/02/07 09:05:54;;;;;;;;;;;;;;;23.87;24.82;99909.19;5044786;28;1290;-78
2022/02/07 09:11:02;;;;;;;;;;;;;;;24.32;24.09;99924.59;5034420;28;1980;-77
2022/02/07 09:13:31;;;;;;;;;;;;;;;23.22;24.92;99928.00;5039666;28;1486;-78
2022/02/07 09:16:15;;;;;;;;;;;;;;;22.56;26.15;99934.91;5040110;28;1434;-76
2022/02/07 09:18:42;;;;;;;;;;;;;;;23.31;25.02;99944.34;5043298;28;2035;-78
2022/02/07 09:21:09;;;;;;;;;;;;;;;22.48;26.04;99949.00;5055092;28;1628;-76
2022/02/07 09:23:37;;;;;;;;;;;;;;;22.43;25.91;99946.88;5032396;28;1295;-78
2022/02/07 09:26:04;;;;;;;;;;;;;;;23.13;25.68;99943.22;5050994;28;967;-77
2022/02/07 09:28:31;;;;;;;;;;;;;;;21.73;26.15;99961.41;5050926;28;1204;-73
2022/02/07 09:30:57;;;;;;;;;;;;;;;22.09;26.32;99962.75;5057662;28;1973;-76
2022/02/07 09:33:23;;;;;;;;;;;;;;;23.02;24.88;99966.03;5033113;28;1589;-77
2022/02/07 09:35:51;;;;;;;;;;;;;;;23.40;25.21;99974.25;5046890;28;982;-75
2022/02/07 09:38:18;;;;;;;;;;;;;;;22.19;26.12;99973.34;5035816;28;1232;-78
2022/02/07 09:40:50;;;;;;;;;;;;;;;23.36;25.20;99977.72;5039794;28;1310;-76
2022/02/07 09:43:17;;;;;;;;;;;;;;;23.62;24.23;99981.28;5048881;28;1493;-77
2022/02/07 09:45:44;;;;;;;;;;;;;;;23.72;24.52;99973.31;5048563;28;1371;-75
2022/02/07 09:48:11;;;;;;;;;;;;;;;24.77;23.45;99993.56;5044944;28;1605;-77
2022/02/07 09:50:38;;;;;;;;;;;;;;;23.95;23.76;99988.44;5050460;28;1906;-75
2022/02/07 09:53:05;;;;;;;;;;;;;;;23.64;24.66;100001.31;5049836;28;1045;-76
2022/02/07 09:55:32;;;;;;;;;;;;;;;21.71;26.15;100016.00;5057890;28;1494;-76
2022/02/07 09:58:00;;;;;;;;;;;;;;;23.60;24.14;100022.22;5067248;28;1027;-73
2022/02/07 10:00:32;;;;;;;;;;;;;;;23.53;24.35;100025.03;5050377;28;1454;-75
2022/02/07 10:03:07;;;;;;;;;;;;;;;21.57;26.94;100032.56;5058457;28;1326;-75
2022/02/07 10:05:44;;;;;;;;;;;;;;;23.15;25.23;100028.78;5032266;28;995;-75
2022/02/07 10:08:15;;;;;;;;;;;;;;;22.60;25.67;100032.09;5049931;28;1210;-75
2022/02/07 10:10:56;;;;;;;;;;;;;;;23.98;24.40;100048.94;5049980;28;1906;-75
2022/02/07 10:13:37;;;;;;;;;;;;;;;23.22;25.08;100043.41;5068473;28;1564;-74
2022/02/07 10:16:22;;;;;;;;;;;;;;;22.40;25.50;100055.97;5042787;28;1477;-78
2022/02/07 10:19:00;;;;;;;;;;;;;;;23.15;24.55;100067.53;5057566;28;1537;-77
2022/02/07 10:21:52;;;;;;;;;;;;;;;23.04;24.74;100064.38;5050520;28;1333;-77
2022/02/07 10:36:07;;;;;;;;;;;;;;;24.93;23.15;100099.44;5065960;28;1469;-77
2022/02/07 10:38:45;;;;;;;;;;;;;;;23.02;24.65;100101.63;5026906;28;1278;-76
2022/02/07 10:41:25;;;;;;;;;;;;;;;23.76;23.98;100113.06;5050343;28;1502;-76
2022/02/07 10:44:05;;;;;;;;;;;;;;;23.01;24.97;100119.31;5049888;28;987;-78
2022/02/07 10:46:35;;;;;;;;;;;;;;;24.07;23.55;100109.38;5050779;28;1497;-77
2022/02/07 10:49:07;;;;;;;;;;;;;;;25.33;23.13;100118.28;5030262;28;991;-77
2022/02/07 10:51:36;;;;;;;;;;;;;;;25.44;22.25;100125.84;5041827;28;1995;-75
2022/02/07 10:54:04;;;;;;;;;;;;;;;24.95;22.20;100133.34;5052024;28;991;-75
2022/02/07 10:56:36;;;;;;;;;;;;;;;23.77;23.55;100127.75;5055269;28;1509;-75
2022/02/07 10:59:06;;;;;;;;;;;;;;;24.07;22.98;100136.25;5038018;28;1425;-76
2022/02/07 11:01:56;;;;;;;;;;;;;;;24.81;22.22;100138.22;5041528;28;1536;-77
2022/02/07 11:04:28;;;;;;;;;;;;;;;26.63;20.99;100143.41;5054034;28;1517;-75
2022/02/07 11:06:59;;;;;;;;;;;;;;;24.55;22.64;100149.38;5051330;28;1389;-77
2022/02/07 11:09:33;;;;;;;;;;;;;;;25.34;22.28;100159.75;5051448;28;1457;-76
2022/02/07 11:12:22;;;;;;;;;;;;;;;24.72;22.15;100162.69;5032100;28;1922;-73
2022/02/07 11:14:58;;;;;;;;;;;;;;;22.05;25.33;100168.75;5061680;28;1651;-75
2022/02/07 11:20:28;;;;;;;;;;;;;;;24.04;23.56;100167.22;5028087;28;1502;-75
2022/02/07 11:23:05;;;;;;;;;;;;;;;23.38;23.67;100174.91;5059285;28;1580;-75
2022/02/07 11:25:43;;;;;;;;;;;;;;;24.44;22.54;100185.34;5045721;28;995;-78
2022/02/07 11:28:14;;;;;;;;;;;;;;;22.60;23.55;100189.72;5058227;28;1561;-74
2022/02/07 11:30:45;;;;;;;;;;;;;;;25.64;21.85;100197.78;5055548;28;1484;-76
2022/02/07 11:33:33;;;;;;;;;;;;;;;24.28;23.00;100206.22;5016588;28;1994;-75
2022/02/07 11:36:00;;;;;;;;;;;;;;;22.28;24.40;100204.22;5049624;28;1375;-77
2022/02/07 11:38:26;;;;;;;;;;;;;;;24.82;22.13;100214.88;5039751;28;1505;-76
2022/02/07 11:41:00;;;;;;;;;;;;;;;23.71;22.73;100215.41;5056550;28;1561;-76
2022/02/07 11:43:29;;;;;;;;;;;;;;;23.27;22.09;100214.41;5049367;28;1136;-74
2022/02/07 11:45:56;;;;;;;;;;;;;;;23.95;21.83;100226.78;5042705;28;1473;-81
2022/02/07 11:48:35;;;;;;;;;;;;;;;25.08;20.84;100235.91;5051188;28;1537;-77
2022/02/07 11:51:02;;;;;;;;;;;;;;;24.90;21.23;100231.19;5040849;28;1399;-74
2022/02/07 11:53:33;;;;;;;;;;;;;;;22.22;23.11;100252.03;5059035;28;1919;-77
2022/02/07 11:56:07;;;;;;;;;;;;;;;22.00;22.91;100243.97;5052960;28;1264;-76
2022/02/07 11:58:44;;;;;;;;;;;;;;;23.48;22.16;100246.44;5056853;28;1572;-77
2022/02/07 12:01:12;;;;;;;;;;;;;;;23.80;21.63;100260.28;5028794;28;1482;-76
2022/02/07 12:03:41;;;;;;;;;;;;;;;21.84;23.02;100260.97;5037117;28;1501;-76
2022/02/07 12:06:07;;;;;;;;;;;;;;;21.13;23.77;100279.63;5053709;28;894;-75
2022/02/07 12:08:37;;;;;;;;;;;;;;;21.50;24.39;100273.81;5053174;28;1324;-76
2022/02/07 12:11:08;;;;;;;;;;;;;;;22.19;23.41;100281.00;5060452;28;1524;-76
2022/02/07 12:13:35;;;;;;;;;;;;;;;23.48;21.42;100280.53;5074309;22;3515;-73
2022/02/07 12:16:06;;;;;;;;;;;;;;;22.32;22.58;100290.34;5057806;28;1259;-75
2022/02/07 12:18:32;;;;;;;;;;;;;;;23.17;21.88;100293.22;5050022;28;1481;-75
2022/02/07 12:21:14;;;;;;;;;;;;;;;24.49;20.62;100286.25;5056586;28;1869;-72
2022/02/07 12:23:41;;;;;;;;;;;;;;;23.41;21.53;100290.78;5056458;28;1430;-72
2022/02/07 12:26:13;;;;;;;;;;;;;;;23.56;20.39;100301.59;5051801;28;1505;-73
2022/02/07 12:28:44;;;;;;;;;;;;;;;22.70;21.45;100311.81;5051516;28;1493;-71
2022/02/07 12:31:18;;;;;;;;;;;;;;;23.29;21.33;100320.22;5041744;28;1354;-70
2022/02/07 12:33:46;;;;;;;;;;;;;;;24.85;19.98;100317.94;5051619;28;1906;-71
2022/02/07 12:36:13;;;;;;;;;;;;;;;23.74;20.41;100323.88;5047519;28;948;-74
2022/02/07 12:38:41;;;;;;;;;;;;;;;20.35;22.77;100304.53;5033037;28;1489;-73
2022/02/07 12:41:09;;;;;;;;;;;;;;;23.68;20.71;100335.81;5034078;28;1505;-73
2022/02/07 12:43:38;;;;;;;;;;;;;;;23.09;21.22;100343.25;5052044;28;1509;-75
2022/02/07 12:46:06;;;;;;;;;;;;;;;24.46;20.08;100336.59;5051850;28;1020;-76
2022/02/07 12:48:34;;;;;;;;;;;;;;;26.00;18.43;100342.41;5049328;28;1924;-75
2022/02/07 12:51:00;;;;;;;;;;;;;;;26.84;17.79;100342.38;5034241;28;995;-76
2022/02/07 12:53:29;;;;;;;;;;;;;;;25.04;19.24;100342.91;5033914;28;1969;-72
2022/02/07 12:55:59;;;;;;;;;;;;;;;25.55;18.09;100329.78;5051530;28;998;-73
2022/02/07 12:58:26;;;;;;;;;;;;;;;26.90;18.11;100346.97;5033922;28;785;-73
2022/02/07 13:00:52;;;;;;;;;;;;;;;27.62;16.88;100358.03;5051783;28;1045;-75
2022/02/07 13:03:19;;;;;;;;;;;;;;;26.00;17.72;100346.03;5051797;28;1310;-76
2022/02/07 13:05:46;;;;;;;;;;;;;;;24.78;19.42;100350.44;5033480;28;1142;-75
2022/02/07 13:08:14;;;;;;;;;;;;;;;23.43;19.90;100370.88;5033809;28;1181;-74
2022/02/07 13:10:42;;;;;;;;;;;;;;;25.00;18.55;100363.91;5051546;28;1058;-72
2022/02/07 13:13:27;;;;;;;;;;;;;;;25.16;19.29;100384.66;5049924;28;1914;-75
2022/02/07 13:15:53;;;;;;;;;;;;;;;24.81;18.63;100374.13;5044871;28;1472;-76
2022/02/07 13:18:21;;;;;;;;;;;;;;;26.11;18.08;100386.13;5041497;28;1418;-77
2022/02/07 13:20:48;;;;;;;;;;;;;;;26.39;17.35;100384.66;5034128;28;1230;-73
2022/02/07 13:23:16;;;;;;;;;;;;;;;25.81;18.02;100400.81;5016085;28;1566;-73
2022/02/07 13:25:45;;;;;;;;;;;;;;;25.20;17.96;100394.22;5051613;28;950;-76
2022/02/07 13:28:13;;;;;;;;;;;;;;;24.53;18.99;100419.78;5052624;28;1581;-74
2022/02/07 13:30:40;;;;;;;;;;;;;;;24.99;18.48;100417.75;5050753;28;1407;-76
2022/02/07 13:33:06;;;;;;;;;;;;;;;23.62;19.55;100430.03;5051067;28;1910;-74
2022/02/07 13:35:36;;;;;;;;;;;;;;;20.96;21.84;100421.72;5032310;28;1580;-73
2022/02/07 13:38:05;;;;;;;;;;;;;;;20.85;21.71;100426.72;5051287;28;906;-73
2022/02/07 13:40:38;;;;;;;;;;;;;;;20.99;21.50;100437.84;5050298;28;1454;-73
2022/02/07 13:43:09;;;;;;;;;;;;;;;21.50;21.54;100443.09;5051058;28;1333;-73
2022/02/07 13:45:36;;;;;;;;;;;;;;;21.62;21.03;100443.41;5049641;28;1534;-74
2022/02/07 13:48:02;;;;;;;;;;;;;;;23.90;19.31;100463.88;5032454;28;1576;-73
2022/02/07 13:50:30;;;;;;;;;;;;;;;23.64;19.54;100453.69;5049963;28;1576;-73
2022/02/07 13:52:58;;;;;;;;;;;;;;;23.91;18.79;100456.38;5042522;28;1989;-73
2022/02/07 13:55:26;;;;;;;;;;;;;;;24.66;18.27;100477.97;5032444;28;1084;-73
2022/02/07 13:57:54;;;;;;;;;;;;;;;25.04;18.67;100467.84;5051192;28;894;-73
2022/02/07 14:00:22;;;;;;;;;;;;;;;25.23;18.22;100463.22;5050180;28;1548;-72
2022/02/07 14:02:49;;;;;;;;;;;;;;;26.27;17.64;100469.97;5049886;28;1549;-74
2022/02/07 14:05:15;;;;;;;;;;;;;;;26.35;17.24;100481.63;5024580;28;1383;-73
2022/02/07 14:07:51;;;;;;;;;;;;;;;26.23;17.89;100483.53;5048076;28;1179;-75
2022/02/07 14:10:19;;;;;;;;;;;;;;;28.06;16.98;100495.03;5049394;28;1500;-74
2022/02/07 14:12:45;;;;;;;;;;;;;;;25.67;18.00;100488.22;5049826;28;1973;-73
2022/02/07 14:15:11;;;;;;;;;;;;;;;25.52;18.45;100494.13;5049514;28;1271;-75
2022/02/07 14:17:44;;;;;;;;;;;;;;;25.98;17.27;100503.06;5024715;28;1291;-73
2022/02/07 14:20:11;;;;;;;;;;;;;;;23.53;19.75;100501.41;5022917;28;1352;-74
2022/02/07 14:22:38;;;;;;;;;;;;;;;24.57;19.02;100538.41;5031747;28;1477;-73
2022/02/07 14:25:04;;;;;;;;;;;;;;;23.93;20.00;100537.41;5049515;28;1533;-74
2022/02/07 14:27:31;;;;;;;;;;;;;;;23.59;19.56;100546.81;5038125;28;1549;-72
2022/02/07 14:29:57;;;;;;;;;;;;;;;23.22;19.76;100547.25;5032598;28;1026;-73
2022/02/07 14:32:24;;;;;;;;;;;;;;;23.02;20.42;100552.75;5032015;28;1910;-73
2022/02/07 14:34:52;;;;;;;;;;;;;;;22.69;20.58;100545.25;5049873;28;1389;-73